Time;durP1;ratioP1;P1;durP2;ratioP2;P2;SDS_P1;SDS_P2;PMS_P1;PMS_P2;Temp;Humidity;BMP_temperature;BMP_pressure;BME280_temperature;BME280_humidity;BME280_pressure;Samples;Min_cycle;Max_cycle;Signal;HPM_P1;HPM_P2
2021/03/21 00:01:28;;;;;;;196.33;69.70;;;4.90;44.40;;;;;;5056350;28;20025;-66
2021/03/21 00:03:54;;;;;;;58.77;22.37;;;4.80;44.40;;;;;;5056182;28;20072;-68
2021/03/21 00:06:19;;;;;;;107.17;39.83;;;4.80;44.00;;;;;;5056048;28;20051;-66
2021/03/21 00:08:47;;;;;;;64.97;28.43;;;4.80;44.60;;;;;;5055976;28;20037;-66
2021/03/21 00:11:13;;;;;;;80.70;31.77;;;4.70;44.70;;;;;;5055900;28;20512;-66
2021/03/21 00:13:39;;;;;;;99.13;48.03;;;4.70;45.10;;;;;;5056016;28;20033;-66
2021/03/21 00:16:07;;;;;;;53.77;26.87;;;4.70;45.80;;;;;;5055858;28;20428;-67
2021/03/21 00:18:35;;;;;;;33.33;18.47;;;4.70;45.00;;;;;;5055743;28;20021;-66
2021/03/21 00:21:02;;;;;;;12.20;6.73;;;4.70;44.30;;;;;;5055953;28;20029;-65
2021/03/21 00:23:28;;;;;;;6.80;4.00;;;4.60;43.60;;;;;;5056025;28;20052;-66
2021/03/21 00:25:54;;;;;;;28.40;15.00;;;4.60;43.50;;;;;;5055911;28;20414;-66
2021/03/21 00:28:23;;;;;;;22.57;12.67;;;4.60;44.70;;;;;;5055932;28;20028;-68
2021/03/21 00:30:51;;;;;;;25.70;16.30;;;4.60;45.00;;;;;;5055664;28;20035;-68
2021/03/21 00:33:20;;;;;;;15.93;9.20;;;4.50;44.80;;;;;;5055384;28;20037;-66
2021/03/21 00:35:46;;;;;;;16.17;9.10;;;4.50;45.40;;;;;;5055530;28;20032;-66
2021/03/21 00:38:20;;;;;;;13.20;7.00;;;4.50;45.60;;;;;;5055509;28;20028;-66
2021/03/21 00:40:47;;;;;;;9.80;5.50;;;4.40;46.30;;;;;;5055742;28;20021;-66
2021/03/21 00:43:12;;;;;;;10.77;6.73;;;4.40;46.30;;;;;;5055422;28;20029;-65
2021/03/21 00:45:38;;;;;;;9.87;6.03;;;4.40;45.10;;;;;;5055330;28;20021;-66
2021/03/21 00:48:20;;;;;;;21.93;12.57;;;4.40;45.10;;;;;;5055318;28;20045;-65
2021/03/21 00:50:46;;;;;;;16.73;10.33;;;4.40;44.50;;;;;;5054306;28;20029;-66
2021/03/21 00:53:12;;;;;;;11.70;7.87;;;4.40;45.60;;;;;;5055254;28;20032;-66
2021/03/21 00:55:38;;;;;;;9.57;6.20;;;4.30;45.90;;;;;;5055228;28;20036;-66
2021/03/21 00:58:05;;;;;;;8.50;5.13;;;4.30;45.30;;;;;;5055189;28;20493;-66
2021/03/21 01:00:37;;;;;;;11.70;5.67;;;4.30;45.80;;;;;;5055439;28;20436;-66
2021/03/21 01:03:04;;;;;;;11.70;6.68;;;4.30;45.40;;;;;;5055042;28;20017;-66
2021/03/21 01:05:36;;;;;;;7.27;4.73;;;4.30;45.90;;;;;;5054970;28;20048;-65
2021/03/21 01:08:04;;;;;;;91.80;52.13;;;4.30;45.30;;;;;;5054650;28;20025;-66
2021/03/21 01:10:33;;;;;;;29.93;17.80;;;4.30;45.90;;;;;;5054718;28;20481;-66
2021/03/21 01:12:59;;;;;;;7.17;4.20;;;4.30;45.50;;;;;;5054909;28;20029;-66
2021/03/21 01:15:27;;;;;;;6.27;3.90;;;4.30;46.10;;;;;;5054769;28;20033;-66
2021/03/21 01:17:53;;;;;;;7.87;4.70;;;4.20;46.30;;;;;;5054644;28;20025;-66
2021/03/21 01:20:23;;;;;;;6.53;4.43;;;4.20;46.30;;;;;;5054705;28;20036;-66
2021/03/21 01:22:49;;;;;;;5.93;4.17;;;4.20;46.20;;;;;;5054750;28;20020;-66
2021/03/21 01:25:18;;;;;;;5.80;3.47;;;4.20;46.40;;;;;;5054636;28;20032;-66
2021/03/21 01:27:44;;;;;;;5.70;4.07;;;4.10;45.90;;;;;;5054460;28;20107;-66
2021/03/21 01:30:11;;;;;;;6.77;4.60;;;4.10;46.80;;;;;;5054576;28;20109;-66
2021/03/21 01:32:36;;;;;;;9.93;6.37;;;4.10;46.40;;;;;;5054518;28;20052;-65
2021/03/21 01:35:03;;;;;;;6.20;4.37;;;4.00;46.50;;;;;;5054435;28;20045;-66
2021/03/21 01:37:29;;;;;;;6.13;4.40;;;3.90;45.10;;;;;;5054358;28;20025;-65
2021/03/21 01:39:55;;;;;;;4.97;3.83;;;3.90;46.40;;;;;;5054373;28;20393;-65
2021/03/21 01:42:20;;;;;;;6.20;4.13;;;3.90;47.00;;;;;;5054349;28;20029;-66
2021/03/21 01:44:46;;;;;;;6.30;3.93;;;3.90;47.20;;;;;;5054394;28;20028;-66
2021/03/21 01:47:32;;;;;;;5.00;3.27;;;3.90;46.90;;;;;;5054198;28;20025;-66
2021/03/21 01:50:00;;;;;;;5.37;2.80;;;3.90;46.30;;;;;;5054313;28;20033;-65
2021/03/21 01:52:37;;;;;;;6.13;3.40;;;3.80;45.50;;;;;;5054469;28;20025;-66
2021/03/21 01:55:08;;;;;;;6.93;3.63;;;3.90;44.60;;;;;;5054110;28;20037;-65
2021/03/21 01:57:34;;;;;;;6.67;4.40;;;3.80;45.00;;;;;;5053203;28;20377;-66
2021/03/21 02:00:00;;;;;;;6.40;3.60;;;3.80;45.50;;;;;;5051370;28;20090;-66
2021/03/21 02:02:26;;;;;;;5.97;3.33;;;3.90;45.50;;;;;;5051480;28;20021;-65
2021/03/21 02:04:52;;;;;;;4.83;3.40;;;3.90;45.60;;;;;;5052349;28;20707;-65
2021/03/21 02:07:44;;;;;;;4.73;3.20;;;3.80;46.10;;;;;;5053870;28;20017;-65
2021/03/21 02:10:38;;;;;;;5.10;3.60;;;3.80;45.70;;;;;;5053793;28;20377;-66
2021/03/21 02:13:08;;;;;;;;;;;3.80;45.50;;;;;;5053960;28;20029;-67
2021/03/21 02:15:43;;;;;;;5.20;3.23;;;3.80;46.20;;;;;;5053550;28;20361;-65
2021/03/21 02:18:31;;;;;;;6.60;3.70;;;3.70;46.80;;;;;;5053712;28;20025;-68
2021/03/21 02:21:26;;;;;;;4.90;3.57;;;3.70;45.80;;;;;;5053444;28;20104;-65
2021/03/21 02:24:17;;;;;;;6.90;3.70;;;3.70;46.70;;;;;;5053568;28;20099;-66
2021/03/21 02:27:06;;;;;;;5.93;3.87;;;3.60;46.20;;;;;;5053427;28;20033;-66
2021/03/21 02:29:43;;;;;;;7.33;4.53;;;3.60;46.60;;;;;;5053040;28;20025;-66
2021/03/21 02:32:32;;;;;;;5.60;3.40;;;3.60;46.80;;;;;;5053106;28;20378;-66
2021/03/21 02:35:09;;;;;;;5.10;3.10;;;3.60;47.40;;;;;;5053328;28;20044;-65
2021/03/21 02:37:50;;;;;;;4.27;3.10;;;3.60;47.30;;;;;;5053264;28;20036;-65
2021/03/21 02:40:33;;;;;;;4.40;3.13;;;3.60;47.00;;;;;;5053124;28;20025;-65
2021/03/21 02:43:03;;;;;;;5.37;3.10;;;3.50;46.90;;;;;;5052760;28;20519;-67
2021/03/21 02:45:36;;;;;;;6.60;3.30;;;3.60;46.50;;;;;;5053109;28;20501;-65
2021/03/21 02:48:25;;;;;;;5.13;3.38;;;3.60;46.30;;;;;;5053258;28;20032;-65
2021/03/21 02:50:55;;;;;;;5.10;2.87;;;3.50;46.10;;;;;;5052896;28;20025;-65
2021/03/21 02:53:46;;;;;;;4.53;2.90;;;3.50;46.30;;;;;;5053222;28;20028;-65
2021/03/21 02:56:17;;;;;;;4.90;3.10;;;3.50;46.50;;;;;;5055272;28;20059;-65
2021/03/21 02:58:59;;;;;;;3.87;2.90;;;3.50;46.50;;;;;;5053184;28;20104;-65
2021/03/21 03:01:43;;;;;;;4.97;3.27;;;3.50;45.30;;;;;;5053426;28;20140;-65
2021/03/21 03:04:24;;;;;;;5.20;2.93;;;3.50;44.60;;;;;;5052905;28;20033;-65
2021/03/21 03:06:57;;;;;;;3.97;2.70;;;3.40;44.30;;;;;;5053032;28;20025;-65
2021/03/21 03:09:25;;;;;;;;;;;3.40;44.70;;;;;;5053447;28;20098;-65
2021/03/21 03:12:02;;;;;;;8.40;2.97;;;3.40;45.50;;;;;;5052990;28;19952;-66
2021/03/21 03:14:36;;;;;;;5.87;2.70;;;3.50;45.50;;;;;;5054753;28;20033;-65
2021/03/21 03:17:29;;;;;;;4.07;2.70;;;3.40;45.10;;;;;;5057162;28;20474;-66
2021/03/21 03:20:03;;;;;;;7.30;2.93;;;3.40;45.40;;;;;;5057112;28;20373;-66
2021/03/21 03:22:40;;;;;;;5.00;2.93;;;3.40;45.30;;;;;;5056958;28;20056;-65
2021/03/21 03:25:06;;;;;;;4.73;2.90;;;3.40;46.10;;;;;;5057022;28;20159;-65
2021/03/21 03:27:50;;;;;;;4.23;3.03;;;3.40;46.60;;;;;;5056897;28;20481;-65
2021/03/21 03:30:23;;;;;;;7.10;3.30;;;3.30;46.10;;;;;;5057079;28;20116;-65
2021/03/21 03:32:49;;;;;;;4.03;3.10;;;3.40;45.60;;;;;;5056796;28;20409;-65
2021/03/21 03:35:19;;;;;;;4.63;3.07;;;3.30;45.60;;;;;;5056619;28;20037;-68
2021/03/21 03:37:45;;;;;;;5.17;3.17;;;3.30;46.30;;;;;;5056732;28;20029;-67
2021/03/21 03:40:12;;;;;;;5.33;3.23;;;3.30;47.40;;;;;;5056574;28;20031;-65
2021/03/21 03:43:06;;;;;;;4.10;2.80;;;3.30;47.10;;;;;;5056567;28;20063;-65
2021/03/21 03:45:50;;;;;;;4.87;2.80;;;3.30;46.30;;;;;;5055432;28;20036;-68
2021/03/21 03:48:30;;;;;;;;;;;3.20;46.20;;;;;;5056912;28;20024;-65
2021/03/21 03:51:10;;;;;;;15.90;8.93;;;3.20;45.80;;;;;;5056615;28;20345;-65
2021/03/21 03:53:51;;;;;;;10.67;6.23;;;3.20;46.20;;;;;;5056456;28;20055;-65
2021/03/21 03:56:26;;;;;;;10.90;5.83;;;3.20;45.70;;;;;;5056525;28;20087;-68
2021/03/21 03:59:05;;;;;;;10.43;5.70;;;3.20;45.90;;;;;;5056420;28;20424;-65
2021/03/21 04:01:34;;;;;;;8.67;4.90;;;3.10;46.00;;;;;;5056249;28;20022;-65
2021/03/21 04:04:14;;;;;;;6.50;4.30;;;3.10;46.10;;;;;;5056296;28;20119;-65
2021/03/21 04:06:58;;;;;;;6.80;3.97;;;3.20;46.10;;;;;;5056105;28;20100;-65
2021/03/21 04:09:44;;;;;;;4.80;2.60;;;3.10;47.50;;;;;;5056026;28;20033;-65
2021/03/21 04:12:30;;;;;;;5.27;3.00;;;3.10;47.10;;;;;;5056290;28;20029;-65
2021/03/21 04:15:07;;;;;;;5.07;2.90;;;3.20;46.30;;;;;;5055955;28;20040;-65
2021/03/21 04:17:39;;;;;;;5.13;2.70;;;3.10;45.70;;;;;;5056124;28;20025;-65
2021/03/21 04:20:09;;;;;;;4.78;2.55;;;3.10;46.00;;;;;;5055841;28;20542;-66
2021/03/21 04:22:51;;;;;;;4.40;3.03;;;3.10;46.10;;;;;;5056024;28;20025;-66
2021/03/21 04:25:21;;;;;;;6.60;3.47;;;3.10;46.10;;;;;;5055881;28;20025;-65
2021/03/21 04:28:07;;;;;;;4.83;3.20;;;3.10;46.60;;;;;;5055800;28;20029;-65
2021/03/21 04:30:56;;;;;;;4.40;2.77;;;3.10;44.80;;;;;;5055643;28;20029;-65
2021/03/21 04:33:25;;;;;;;6.57;3.27;;;3.10;45.00;;;;;;5055489;28;20397;-65
2021/03/21 04:36:00;;;;;;;4.30;2.63;;;3.10;45.10;;;;;;5055728;28;20032;-65
2021/03/21 04:38:33;;;;;;;5.73;3.37;;;3.00;45.40;;;;;;5055361;28;20477;-66
2021/03/21 04:41:00;;;;;;;6.33;2.90;;;3.00;46.30;;;;;;5055436;28;20029;-67
2021/03/21 04:43:38;;;;;;;5.13;3.40;;;3.00;46.80;;;;;;5055608;28;20461;-65
2021/03/21 04:46:10;;;;;;;5.33;3.07;;;2.90;46.20;;;;;;5055601;28;20029;-65
2021/03/21 04:48:36;;;;;;;4.80;3.10;;;2.90;46.70;;;;;;5055634;28;20427;-65
2021/03/21 04:51:20;;;;;;;4.17;2.70;;;2.80;46.60;;;;;;5055420;28;20024;-65
2021/03/21 04:53:51;;;;;;;3.77;2.60;;;2.80;47.40;;;;;;5055360;28;20047;-65
2021/03/21 04:56:26;;;;;;;6.90;4.07;;;2.80;47.20;;;;;;5055505;28;20478;-65
2021/03/21 04:58:58;;;;;;;12.50;3.70;;;2.70;47.10;;;;;;5055302;28;20099;-65
2021/03/21 05:01:57;;;;;;;4.47;3.30;;;2.80;46.60;;;;;;5055260;28;20056;-65
2021/03/21 05:04:27;;;;;;;6.23;3.20;;;2.80;46.40;;;;;;5055088;28;20029;-65
2021/03/21 05:07:02;;;;;;;4.90;3.00;;;2.70;45.20;;;;;;5055138;28;20076;-65
2021/03/21 05:09:43;;;;;;;4.83;3.00;;;2.70;45.70;;;;;;5054988;28;20025;-65
2021/03/21 05:12:40;;;;;;;4.53;3.10;;;2.70;46.50;;;;;;5055104;28;20052;-65
2021/03/21 05:15:30;;;;;;;7.47;2.87;;;2.70;46.00;;;;;;5055062;28;20033;-65
2021/03/21 05:18:19;;;;;;;3.57;2.63;;;2.70;45.50;;;;;;5054805;28;20025;-67
2021/03/21 05:21:18;;;;;;;4.53;3.00;;;2.70;45.20;;;;;;5063186;28;20037;-66
2021/03/21 05:24:11;;;;;;;6.03;2.70;;;2.70;45.20;;;;;;5053704;28;20044;-65
2021/03/21 05:27:01;;;;;;;5.13;3.00;;;2.70;45.00;;;;;;5054613;28;20025;-65
2021/03/21 05:29:33;;;;;;;6.67;3.00;;;2.70;46.10;;;;;;5054530;28;20025;-66
2021/03/21 05:31:58;;;;;;;7.30;3.00;;;2.70;45.30;;;;;;5054785;28;20052;-67
2021/03/21 05:34:25;;;;;;;4.87;3.20;;;2.70;45.20;;;;;;5054669;28;20385;-65
2021/03/21 05:37:42;;;;;;;4.43;3.10;;;2.70;45.10;;;;;;5054166;28;20451;-67
2021/03/21 05:40:47;;;;;;;4.27;2.60;;;2.80;46.00;;;;;;5058424;28;20040;-65
2021/03/21 05:43:31;;;;;;;5.87;3.07;;;2.80;45.60;;;;;;5063530;28;20037;-65
2021/03/21 05:46:36;;;;;;;4.77;2.90;;;2.80;46.00;;;;;;5054288;28;20057;-65
2021/03/21 05:49:43;;;;;;;6.03;3.20;;;2.80;45.70;;;;;;5054182;28;20035;-65
2021/03/21 05:52:32;;;;;;;4.20;3.17;;;2.80;45.90;;;;;;5054290;28;20052;-65
2021/03/21 05:55:19;;;;;;;5.40;2.93;;;2.90;45.50;;;;;;5055903;28;20120;-65
2021/03/21 05:58:13;;;;;;;5.23;2.90;;;2.90;45.50;;;;;;5054097;28;20025;-66
2021/03/21 06:01:10;;;;;;;5.50;3.13;;;2.90;45.90;;;;;;5054608;28;20025;-65
2021/03/21 06:04:17;;;;;;;5.43;2.93;;;3.00;46.00;;;;;;5053884;28;20100;-65
2021/03/21 06:07:06;;;;;;;5.17;3.30;;;3.00;45.60;;;;;;5054267;28;20021;-65
2021/03/21 06:09:58;;;;;;;5.43;3.10;;;3.00;45.30;;;;;;5054027;28;20037;-65
2021/03/21 06:12:45;;;;;;;4.33;2.93;;;3.00;44.70;;;;;;5053840;28;20458;-65
2021/03/21 06:15:49;;;;;;;5.63;3.03;;;3.10;44.40;;;;;;5053957;28;20155;-65
2021/03/21 06:18:21;;;;;;;4.97;3.00;;;3.10;44.00;;;;;;5053761;28;20041;-65
2021/03/21 06:21:15;;;;;;;6.53;3.13;;;3.20;43.80;;;;;;5053854;28;20031;-66
2021/03/21 06:23:52;;;;;;;5.53;3.00;;;3.20;43.80;;;;;;5053611;28;20036;-67
2021/03/21 06:26:27;;;;;;;5.10;3.27;;;3.30;44.30;;;;;;5053648;28;20532;-66
2021/03/21 06:29:24;;;;;;;6.57;3.97;;;3.30;44.20;;;;;;5053569;28;20482;-66
2021/03/21 06:32:14;;;;;;;5.27;3.40;;;3.40;43.20;;;;;;5053474;28;20059;-67
2021/03/21 06:34:52;;;;;;;5.97;3.50;;;3.40;43.30;;;;;;5053385;28;20033;-66
2021/03/21 06:37:51;;;;;;;5.57;3.07;;;3.50;43.10;;;;;;5053426;28;20033;-67
2021/03/21 06:40:39;;;;;;;7.00;3.43;;;3.50;43.30;;;;;;5053689;28;20075;-67
2021/03/21 06:43:18;;;;;;;5.83;3.50;;;3.60;43.40;;;;;;5053294;28;20035;-67
2021/03/21 06:46:17;;;;;;;6.37;3.47;;;3.60;42.70;;;;;;5053268;28;20021;-67
2021/03/21 06:49:07;;;;;;;6.10;3.53;;;3.70;43.00;;;;;;5052485;28;20033;-67
2021/03/21 06:51:55;;;;;;;5.00;3.23;;;3.70;43.20;;;;;;5053605;28;20075;-67
2021/03/21 06:54:36;;;;;;;6.23;3.80;;;3.80;43.50;;;;;;5053113;28;20039;-67
2021/03/21 06:57:20;;;;;;;7.23;3.60;;;3.90;43.40;;;;;;5053254;28;20029;-67
2021/03/21 06:59:49;;;;;;;6.43;3.60;;;3.90;43.40;;;;;;5053312;28;20091;-66
2021/03/21 07:02:48;;;;;;;7.93;3.87;;;4.00;43.50;;;;;;5053196;28;20032;-67
2021/03/21 07:05:51;;;;;;;4.73;3.30;;;4.10;43.40;;;;;;5053126;28;20489;-67
2021/03/21 07:08:41;;;;;;;5.10;3.35;;;4.10;42.50;;;;;;5053058;28;20025;-68
2021/03/21 07:11:25;;;;;;;6.80;3.40;;;4.20;42.40;;;;;;5053076;28;20021;-69
2021/03/21 07:14:22;;;;;;;5.00;3.50;;;4.30;41.80;;;;;;5053376;28;20056;-69
2021/03/21 07:17:09;;;;;;;5.97;3.63;;;4.30;42.10;;;;;;5052148;28;20049;-69
2021/03/21 07:20:02;;;;;;;5.77;3.70;;;4.40;42.20;;;;;;5053510;28;20465;-67
2021/03/21 07:22:55;;;;;;;5.83;3.37;;;4.50;41.90;;;;;;5053162;28;20482;-66
2021/03/21 07:25:55;;;;;;;4.78;3.42;;;4.60;41.50;;;;;;5053149;28;20302;-69
2021/03/21 07:29:12;;;;;;;5.10;3.07;;;4.60;41.10;;;;;;5052756;28;20055;-67
2021/03/21 07:32:01;;;;;;;4.40;2.60;;;4.70;41.10;;;;;;5062362;28;20045;-67
2021/03/21 07:34:39;;;;;;;4.60;2.87;;;4.80;40.90;;;;;;5052717;28;20063;-67
2021/03/21 07:37:19;;;;;;;3.87;2.70;;;4.90;40.30;;;;;;5052733;28;20044;-67
2021/03/21 07:40:06;;;;;;;5.30;2.70;;;4.90;40.20;;;;;;5049496;28;20028;-67
2021/03/21 07:42:41;;;;;;;4.37;2.63;;;5.00;39.20;;;;;;5049832;28;20049;-67
2021/03/21 07:45:06;;;;;;;4.43;2.70;;;5.10;38.50;;;;;;5051349;28;20096;-69
2021/03/21 07:47:53;;;;;;;5.53;2.93;;;5.20;38.00;;;;;;5052414;28;20499;-66
2021/03/21 07:50:23;;;;;;;3.93;2.73;;;5.20;38.20;;;;;;5052571;28;20032;-67
2021/03/21 07:53:12;;;;;;;7.80;3.27;;;5.30;38.20;;;;;;5050201;28;20131;-67
2021/03/21 07:55:56;;;;;;;5.30;2.57;;;5.40;38.50;;;;;;5049602;28;20112;-67
2021/03/21 07:58:30;;;;;;;4.67;2.50;;;5.40;38.50;;;;;;5050915;28;20036;-66
2021/03/21 08:00:57;;;;;;;3.40;2.33;;;5.50;37.20;;;;;;5054818;28;20025;-67
2021/03/21 08:03:31;;;;;;;4.13;2.67;;;5.60;37.60;;;;;;5056473;28;20480;-67
2021/03/21 08:06:00;;;;;;;4.47;2.50;;;5.60;37.60;;;;;;5056355;28;20116;-67
2021/03/21 08:08:29;;;;;;;4.70;2.73;;;5.70;37.70;;;;;;5056147;28;20071;-67
2021/03/21 08:11:00;;;;;;;5.13;3.27;;;5.80;37.60;;;;;;5056120;28;20052;-67
2021/03/21 08:13:34;;;;;;;4.57;3.20;;;5.90;37.60;;;;;;5055998;28;20095;-67
2021/03/21 08:16:01;;;;;;;3.90;2.70;;;6.00;37.10;;;;;;5055631;28;20079;-67
2021/03/21 08:18:34;;;;;;;6.33;2.87;;;6.00;36.70;;;;;;5055851;28;20047;-67
2021/03/21 08:21:02;;;;;;;4.45;2.42;;;6.10;36.80;;;;;;5056152;28;20478;-67
2021/03/21 08:23:41;;;;;;;4.80;2.60;;;6.20;37.10;;;;;;5054461;28;20021;-70
2021/03/21 08:26:10;;;;;;;3.73;2.80;;;6.30;36.30;;;;;;5054345;28;20092;-71
2021/03/21 08:29:04;;;;;;;5.63;3.07;;;6.40;36.00;;;;;;5055019;28;20029;-70
2021/03/21 08:31:40;;;;;;;4.23;2.77;;;6.50;35.80;;;;;;5027814;28;20076;-70
2021/03/21 08:34:18;;;;;;;5.10;3.00;;;6.60;36.10;;;;;;5055002;28;20100;-70
2021/03/21 08:36:44;;;;;;;4.07;2.53;;;6.80;35.90;;;;;;5053921;28;20028;-67
2021/03/21 08:39:22;;;;;;;4.17;2.37;;;6.80;34.40;;;;;;5049116;28;20024;-69
2021/03/21 08:41:54;;;;;;;4.03;2.57;;;6.90;35.40;;;;;;5055095;28;20067;-70
2021/03/21 08:44:48;;;;;;;3.97;2.80;;;7.00;35.40;;;;;;5055020;28;20020;-70
2021/03/21 08:47:26;;;;;;;4.27;2.80;;;7.10;34.20;;;;;;5055277;28;20340;-69
2021/03/21 08:49:55;;;;;;;3.77;2.40;;;7.10;32.70;;;;;;5054711;28;20082;-69
2021/03/21 08:52:34;;;;;;;4.07;2.87;;;7.20;33.70;;;;;;5036910;28;20034;-70
2021/03/21 08:55:01;;;;;;;4.83;3.07;;;7.30;33.70;;;;;;5044395;28;20056;-69
2021/03/21 08:57:30;;;;;;;4.47;2.80;;;7.40;33.90;;;;;;5048825;28;20028;-69
2021/03/21 09:00:16;;;;;;;4.93;3.27;;;7.40;32.50;;;;;;5043880;28;20053;-69
2021/03/21 09:02:42;;;;;;;5.43;3.13;;;7.40;32.50;;;;;;5048123;28;20147;-69
2021/03/21 09:05:12;;;;;;;5.40;2.87;;;7.50;32.60;;;;;;5044040;28;20120;-70
2021/03/21 09:08:01;;;;;;;4.40;2.87;;;7.60;31.70;;;;;;5054686;28;20390;-66
2021/03/21 09:10:32;;;;;;;3.57;2.70;;;7.60;31.90;;;;;;5054468;28;20048;-67
2021/03/21 09:13:06;;;;;;;5.13;3.10;;;7.70;32.00;;;;;;5051940;28;20031;-67
2021/03/21 09:15:37;;;;;;;4.43;2.90;;;7.80;32.20;;;;;;5052191;28;20045;-67
2021/03/21 09:18:15;;;;;;;5.43;3.33;;;7.90;33.30;;;;;;5051971;28;20060;-66
2021/03/21 09:20:53;;;;;;;4.73;3.17;;;8.00;32.40;;;;;;5054525;28;20104;-66
2021/03/21 09:23:37;;;;;;;4.40;2.80;;;8.10;32.60;;;;;;5054734;28;20035;-66
2021/03/21 09:26:50;;;;;;;4.53;3.03;;;8.20;33.00;;;;;;5054837;28;20021;-66
2021/03/21 09:29:28;;;;;;;4.70;3.17;;;8.40;33.00;;;;;;5054009;28;20037;-67
2021/03/21 09:32:05;;;;;;;5.00;3.27;;;8.50;32.40;;;;;;5054270;28;20098;-67
2021/03/21 09:34:55;;;;;;;4.27;3.23;;;8.60;32.50;;;;;;5054184;28;20032;-67
2021/03/21 09:37:23;;;;;;;5.27;3.67;;;8.60;30.90;;;;;;5054586;28;20033;-68
2021/03/21 09:39:59;;;;;;;7.57;3.43;;;8.60;30.90;;;;;;5054276;28;20083;-67
2021/03/21 09:42:25;;;;;;;6.73;2.83;;;8.70;32.10;;;;;;5053995;28;20045;-67
2021/03/21 09:44:51;;;;;;;6.37;2.90;;;8.60;31.10;;;;;;5054140;28;20426;-68
2021/03/21 09:47:37;;;;;;;4.67;2.90;;;8.60;30.80;;;;;;5054326;28;20055;-66
2021/03/21 09:50:06;;;;;;;4.93;3.27;;;8.50;30.10;;;;;;5053671;28;20465;-67
2021/03/21 09:53:09;;;;;;;4.67;3.10;;;8.50;31.30;;;;;;5053913;28;20490;-67
2021/03/21 09:55:50;;;;;;;4.88;3.35;;;8.50;30.70;;;;;;5050780;28;20075;-67
2021/03/21 09:58:34;;;;;;;7.57;3.10;;;8.50;31.30;;;;;;5051231;28;20039;-67
2021/03/21 10:01:14;;;;;;;5.63;3.50;;;8.50;31.30;;;;;;5053078;28;20358;-67
2021/03/21 10:03:44;;;;;;;5.67;3.40;;;8.50;32.00;;;;;;5053996;28;20067;-66
2021/03/21 10:06:21;;;;;;;5.33;3.37;;;8.50;31.90;;;;;;5053744;28;20035;-67
2021/03/21 10:09:16;;;;;;;5.20;3.30;;;8.50;32.10;;;;;;5053925;28;20025;-67
2021/03/21 10:11:51;;;;;;;4.00;3.03;;;8.60;30.80;;;;;;5052810;28;20444;-66
2021/03/21 10:14:26;;;;;;;5.47;3.90;;;8.70;31.20;;;;;;5053720;28;20074;-68
2021/03/21 10:16:54;;;;;;;8.00;4.10;;;8.80;30.80;;;;;;5053734;28;20481;-67
2021/03/21 10:19:38;;;;;;;7.13;4.43;;;9.00;31.40;;;;;;5053826;28;20029;-66
2021/03/21 10:22:26;;;;;;;4.47;3.70;;;9.20;31.00;;;;;;5053838;28;20096;-64
2021/03/21 10:25:00;;;;;;;4.90;3.20;;;9.30;30.90;;;;;;5053826;28;20036;-66
2021/03/21 10:27:29;;;;;;;5.50;3.90;;;9.50;30.30;;;;;;5052634;28;20384;-64
2021/03/21 10:30:19;;;;;;;7.63;3.87;;;9.60;30.70;;;;;;5053427;28;20040;-67
2021/03/21 10:32:49;;;;;;;8.73;4.07;;;9.80;30.90;;;;;;5053465;28;20091;-66
2021/03/21 10:35:34;;;;;;;8.53;5.10;;;9.90;29.70;;;;;;5053529;28;20065;-67
2021/03/21 10:38:02;;;;;;;8.43;5.07;;;10.00;29.30;;;;;;5053199;28;20031;-64
2021/03/21 10:40:30;;;;;;;8.07;3.77;;;10.10;29.70;;;;;;5053424;28;20029;-64
2021/03/21 10:42:56;;;;;;;5.47;4.20;;;10.10;29.00;;;;;;5053421;28;20020;-64
2021/03/21 10:45:31;;;;;;;8.20;4.50;;;10.10;29.20;;;;;;5053377;28;20108;-64
2021/03/21 10:47:57;;;;;;;5.20;4.40;;;10.10;29.00;;;;;;5053606;28;20132;-64
2021/03/21 10:50:29;;;;;;;7.70;3.60;;;10.10;29.20;;;;;;5053101;28;20470;-64
2021/03/21 10:53:16;;;;;;;5.10;3.90;;;10.10;29.40;;;;;;5053227;28;20048;-64
2021/03/21 10:56:02;;;;;;;5.50;4.00;;;10.20;29.30;;;;;;5053364;28;20040;-66
2021/03/21 10:58:33;;;;;;;8.93;4.00;;;10.20;29.60;;;;;;5053034;28;20044;-64
2021/03/21 11:01:19;;;;;;;5.37;3.53;;;10.30;29.50;;;;;;5053195;28;20110;-64
2021/03/21 11:03:49;;;;;;;4.83;3.60;;;10.30;30.00;;;;;;5053124;28;20090;-64
2021/03/21 11:06:17;;;;;;;4.37;3.70;;;10.40;30.30;;;;;;5053241;28;20075;-64
2021/03/21 11:08:42;;;;;;;5.20;3.50;;;10.50;29.80;;;;;;5053084;28;20144;-64
2021/03/21 11:11:19;;;;;;;4.57;3.23;;;10.60;29.60;;;;;;5053126;28;20115;-64
2021/03/21 11:13:46;;;;;;;4.43;3.40;;;10.70;29.20;;;;;;5053063;28;20390;-64
2021/03/21 11:16:20;;;;;;;9.27;4.20;;;10.80;29.10;;;;;;5053076;28;20496;-64
2021/03/21 11:18:49;;;;;;;4.47;3.90;;;10.90;30.80;;;;;;5052634;28;20056;-64
2021/03/21 11:21:15;;;;;;;4.30;3.53;;;11.00;30.10;;;;;;5052997;28;20437;-64
2021/03/21 11:23:48;;;;;;;5.20;4.10;;;11.10;29.40;;;;;;5052620;28;20033;-64
2021/03/21 11:26:18;;;;;;;6.67;4.63;;;11.10;29.80;;;;;;5052797;28;20044;-64
2021/03/21 11:28:45;;;;;;;4.70;3.58;;;11.10;30.20;;;;;;5052669;28;20135;-64
2021/03/21 11:31:27;;;;;;;4.53;3.20;;;11.10;29.80;;;;;;5052879;28;20048;-64
2021/03/21 11:33:52;;;;;;;4.83;3.50;;;11.20;29.80;;;;;;5052578;28;20831;-64
2021/03/21 11:36:27;;;;;;;6.27;4.20;;;11.30;29.40;;;;;;5055673;28;20120;-64
2021/03/21 11:38:54;;;;;;;5.47;3.17;;;11.50;27.90;;;;;;5056677;28;20163;-64
2021/03/21 11:41:28;;;;;;;4.77;3.80;;;11.50;29.10;;;;;;5056703;28;20056;-64
2021/03/21 11:44:27;;;;;;;5.00;3.40;;;11.60;29.30;;;;;;5056558;28;20032;-64
2021/03/21 11:46:55;;;;;;;5.32;3.90;;;11.70;29.80;;;;;;5056552;28;20037;-63
2021/03/21 11:49:25;;;;;;;4.57;2.90;;;11.70;28.70;;;;;;5056670;28;20481;-64
2021/03/21 11:51:59;;;;;;;7.18;3.83;;;11.80;29.50;;;;;;5056749;28;20029;-64
2021/03/21 11:54:28;;;;;;;4.55;3.22;;;11.90;29.00;;;;;;5056486;28;20553;-64
2021/03/21 11:56:59;;;;;;;5.63;3.10;;;11.90;28.60;;;;;;5056456;28;20033;-64
2021/03/21 11:59:33;;;;;;;5.63;3.45;;;11.90;28.30;;;;;;5053238;28;20017;-64
2021/03/21 12:02:00;;;;;;;3.67;2.63;;;11.90;29.50;;;;;;5053640;28;20050;-67
2021/03/21 12:04:35;;;;;;;4.20;2.55;;;11.90;27.10;;;;;;5055733;28;20424;-67
2021/03/21 12:07:01;;;;;;;4.57;2.65;;;11.90;27.70;;;;;;5056453;28;20028;-64
2021/03/21 12:09:36;;;;;;;3.60;2.55;;;11.80;27.70;;;;;;5055996;28;20021;-63
2021/03/21 12:12:05;;;;;;;4.85;2.80;;;11.70;27.60;;;;;;5056013;28;20033;-64
2021/03/21 12:14:31;;;;;;;4.40;2.50;;;11.50;27.60;;;;;;5055948;28;20100;-64
2021/03/21 12:16:58;;;;;;;4.22;2.80;;;11.50;27.90;;;;;;5055798;28;20060;-64
2021/03/21 12:19:26;;;;;;;5.53;2.00;;;11.40;28.30;;;;;;5055604;28;20051;-64
2021/03/21 12:22:01;;;;;;;4.32;2.60;;;11.30;28.10;;;;;;5053121;28;20055;-64
2021/03/21 12:24:29;;;;;;;3.83;2.00;;;11.30;28.20;;;;;;5053093;28;20074;-64
2021/03/21 12:27:26;;;;;;;3.00;1.97;;;11.20;27.70;;;;;;5053892;28;20071;-64
2021/03/21 12:29:51;;;;;;;3.27;1.90;;;11.20;28.90;;;;;;5055257;28;20044;-64
2021/03/21 12:32:26;;;;;;;3.58;2.28;;;11.20;28.00;;;;;;5055042;28;20049;-67
2021/03/21 12:34:52;;;;;;;4.03;2.17;;;11.20;27.70;;;;;;5055423;28;20094;-63
2021/03/21 12:37:22;;;;;;;3.22;2.22;;;11.20;28.20;;;;;;5055521;28;20071;-63
2021/03/21 12:39:48;;;;;;;2.83;1.80;;;11.30;28.40;;;;;;5055547;28;20744;-64
2021/03/21 12:42:25;;;;;;;8.65;1.92;;;11.30;28.30;;;;;;5055301;28;20028;-64
2021/03/21 12:45:07;;;;;;;2.23;1.70;;;11.30;28.20;;;;;;5055202;28;20033;-64
2021/03/21 12:47:38;;;;;;;4.18;3.30;;;11.30;27.70;;;;;;5052872;28;20028;-64
2021/03/21 12:50:25;;;;;;;15.87;12.00;;;11.30;28.20;;;;;;5055282;28;20028;-67
2021/03/21 12:52:51;;;;;;;35.13;21.13;;;11.30;28.40;;;;;;5055358;28;20045;-63
2021/03/21 12:55:17;;;;;;;3.80;2.40;;;11.40;28.50;;;;;;5054985;28;20033;-64
2021/03/21 12:57:43;;;;;;;6.23;2.23;;;11.40;27.90;;;;;;5055068;28;20104;-63
2021/03/21 13:00:16;;;;;;;9.17;6.87;;;11.40;28.20;;;;;;5055544;28;20057;-67
2021/03/21 13:02:42;;;;;;;4.22;3.03;;;11.40;28.30;;;;;;5055127;28;20124;-64
2021/03/21 13:05:28;;;;;;;8.93;6.27;;;11.40;28.40;;;;;;5054524;28;20524;-65
2021/03/21 13:07:55;;;;;;;7.95;5.63;;;11.30;28.60;;;;;;5054647;28;20024;-65
2021/03/21 13:10:21;;;;;;;8.02;5.80;;;11.30;28.70;;;;;;5054987;28;20095;-65
2021/03/21 13:12:47;;;;;;;4.97;3.60;;;11.30;28.90;;;;;;5054972;28;20017;-64
2021/03/21 13:15:14;;;;;;;7.82;4.70;;;11.30;29.00;;;;;;5054859;28;20033;-64
2021/03/21 13:17:40;;;;;;;5.57;3.63;;;11.30;29.10;;;;;;5054946;28;20021;-64
2021/03/21 13:20:08;;;;;;;4.55;2.65;;;11.30;28.90;;;;;;5054427;28;20504;-64
2021/03/21 13:22:34;;;;;;;5.60;4.20;;;11.30;29.10;;;;;;5054544;28;20028;-64
2021/03/21 13:25:01;;;;;;;4.60;2.40;;;11.30;29.20;;;;;;5054868;28;20040;-64
2021/03/21 13:27:27;;;;;;;4.88;3.40;;;11.30;29.50;;;;;;5054692;28;20097;-64
2021/03/21 13:29:53;;;;;;;5.00;2.83;;;11.20;29.30;;;;;;5054277;28;20029;-65
2021/03/21 13:32:19;;;;;;;4.80;2.60;;;11.20;29.40;;;;;;5054384;28;20111;-65
2021/03/21 13:34:45;;;;;;;4.72;2.40;;;11.20;29.50;;;;;;5054718;28;20486;-63
2021/03/21 13:37:11;;;;;;;5.97;3.50;;;11.20;30.00;;;;;;5054415;28;20104;-65
2021/03/21 13:39:37;;;;;;;2.95;2.20;;;11.10;29.80;;;;;;5054458;28;20381;-65
2021/03/21 13:42:04;;;;;;;3.83;2.70;;;11.10;30.00;;;;;;5054077;28;20096;-65